Time;durP1;ratioP1;P1;durP2;ratioP2;P2;SDS_P1;SDS_P2;PMS_P1;PMS_P2;Temp;Humidity;BMP_temperature;BMP_pressure;BME280_temperature;BME280_humidity;BME280_pressure;Samples;Min_cycle;Max_cycle;Signal;HPM_P1;HPM_P2
2021/04/05 00:00:25;;;;;;;23.73;4.10;;;;;;;3.92;64.68;98659.94;4910889;29;20029;-82
2021/04/05 00:02:52;;;;;;;19.23;2.88;;;;;;;4.32;64.71;98731.69;4877677;29;20051;-81
2021/04/05 00:05:20;;;;;;;20.50;3.83;;;;;;;4.28;62.52;98723.28;4906757;29;20103;-82
2021/04/05 00:07:47;;;;;;;13.40;2.20;;;;;;;4.35;63.13;98749.91;4933540;29;20060;-82
2021/04/05 00:10:26;;;;;;;19.27;3.38;;;;;;;4.38;63.01;98739.66;4932133;29;20039;-83
2021/04/05 00:12:55;;;;;;;19.75;3.10;;;;;;;4.24;62.36;98727.41;4908182;29;20467;-82
2021/04/05 00:15:21;;;;;;;18.80;2.92;;;;;;;4.26;63.10;98728.00;4901972;29;20039;-82
2021/04/05 00:17:47;;;;;;;28.13;4.35;;;;;;;3.90;64.45;98677.94;4901812;29;20033;-82
2021/04/05 00:20:20;;;;;;;19.17;3.10;;;;;;;4.34;63.75;98740.25;4917963;29;20012;-83
2021/04/05 00:22:47;;;;;;;21.38;3.95;;;;;;;4.26;63.13;98711.22;4913687;29;20025;-82
2021/04/05 00:25:13;;;;;;;22.30;3.97;;;;;;;4.33;64.27;98742.09;4914445;29;20033;-82
2021/04/05 00:27:41;;;;;;;17.98;2.45;;;;;;;4.22;65.97;98713.47;4895026;29;20049;-81
2021/04/05 00:30:09;;;;;;;16.60;3.17;;;;;;;4.17;64.20;98686.66;4916154;29;20025;-82
2021/04/05 00:32:35;;;;;;;13.70;2.38;;;;;;;4.15;64.05;98713.50;4898039;29;20055;-81
2021/04/05 00:35:04;;;;;;;13.05;2.08;;;;;;;4.08;65.11;98694.06;4884319;29;20029;-82
2021/04/05 00:37:30;;;;;;;11.23;1.88;;;;;;;3.96;65.23;98669.94;4899423;29;20029;-82
2021/04/05 00:39:55;;;;;;;14.90;2.13;;;;;;;4.02;64.94;98691.44;4885449;29;20092;-82
2021/04/05 00:42:21;;;;;;;7.90;1.48;;;;;;;4.05;64.29;98691.81;4902683;29;20036;-81
2021/04/05 00:44:46;;;;;;;11.55;2.05;;;;;;;4.11;62.68;98680.34;4899440;29;20056;-81
2021/04/05 00:47:12;;;;;;;11.80;2.70;;;;;;;4.10;61.72;98701.84;4915169;29;20568;-82
2021/04/05 00:49:38;;;;;;;8.35;1.20;;;;;;;4.06;60.03;98705.94;4895177;29;20052;-81
2021/04/05 00:52:05;;;;;;;12.95;2.35;;;;;;;3.81;61.57;98672.03;4895166;29;20065;-82
2021/04/05 00:54:31;;;;;;;5.82;1.58;;;;;;;3.92;55.94;98694.53;4912359;29;20027;-82
2021/04/05 00:56:57;;;;;;;7.88;1.63;;;;;;;3.92;57.49;98707.81;4916299;29;20064;-81
2021/04/05 00:59:22;;;;;;;7.63;1.90;;;;;;;3.86;54.21;98676.72;4915945;29;20035;-81
2021/04/05 01:01:48;;;;;;;6.18;1.52;;;;;;;3.65;55.91;98636.06;4869275;29;20048;-82
2021/04/05 01:04:13;;;;;;;9.65;2.20;;;;;;;3.96;57.88;98719.69;4893869;29;20133;-82
2021/04/05 01:06:40;;;;;;;7.40;1.75;;;;;;;3.79;60.35;98690.03;4895919;29;20042;-81
2021/04/05 01:09:07;;;;;;;7.97;2.15;;;;;;;3.78;56.97;98664.47;4913049;29;20046;-82
2021/04/05 01:11:34;;;;;;;15.75;2.28;;;;;;;3.89;56.89;98649.69;4895484;29;20029;-80
2021/04/05 01:14:01;;;;;;;7.97;1.65;;;;;;;3.83;55.10;98685.94;4896479;29;20028;-80
2021/04/05 01:16:28;;;;;;;5.40;1.63;;;;;;;3.85;55.32;98702.50;4893010;29;20047;-79
2021/04/05 01:18:55;;;;;;;11.50;2.17;;;;;;;3.69;52.30;98687.78;4903313;29;20110;-81
2021/04/05 01:21:21;;;;;;;11.50;1.70;;;;;;;3.67;51.10;98702.31;4894659;29;20025;-82
2021/04/05 01:23:46;;;;;;;4.20;1.23;;;;;;;3.80;48.54;98760.00;4915322;29;20029;-82
2021/04/05 01:26:12;;;;;;;6.13;1.95;;;;;;;3.82;48.84;98710.09;4898314;29;20033;-82
2021/04/05 01:28:38;;;;;;;5.35;1.27;;;;;;;3.72;49.73;98727.28;4916240;29;20083;-81
2021/04/05 01:31:04;;;;;;;9.15;2.08;;;;;;;3.56;51.17;98693.13;4906427;29;20099;-82
2021/04/05 01:33:38;;;;;;;7.72;2.00;;;;;;;3.59;53.47;98729.94;4912307;29;20076;-82
2021/04/05 01:36:13;;;;;;;7.57;1.80;;;;;;;3.62;50.40;98705.59;4932481;29;20024;-82
2021/04/05 01:38:44;;;;;;;11.43;2.65;;;;;;;3.66;54.52;98762.69;4909729;29;20039;-82
2021/04/05 01:41:13;;;;;;;5.57;1.88;;;;;;;3.46;49.54;98684.75;4897587;29;20032;-81
2021/04/05 01:43:40;;;;;;;6.40;1.42;;;;;;;3.51;47.47;98642.41;4915689;29;20156;-82
2021/04/05 01:46:08;;;;;;;7.93;1.92;;;;;;;3.52;47.55;98759.19;4936241;29;20063;-82
2021/04/05 01:48:35;;;;;;;12.40;2.63;;;;;;;3.50;48.95;98737.28;4905891;29;20038;-82
2021/04/05 01:51:06;;;;;;;7.25;2.28;;;;;;;3.39;48.46;98758.38;4937236;29;20021;-81
2021/04/05 01:53:33;;;;;;;7.97;1.75;;;;;;;3.13;45.59;98693.53;4920252;29;20068;-82
2021/04/05 01:56:00;;;;;;;5.97;2.05;;;;;;;2.98;43.96;98695.53;4929618;29;20048;-82
2021/04/05 01:58:26;;;;;;;7.40;1.58;;;;;;;3.22;44.24;98776.53;4900861;29;20033;-82
2021/04/05 02:00:52;;;;;;;13.43;3.38;;;;;;;3.21;48.41;98735.88;4901442;29;20045;-82
2021/04/05 02:03:18;;;;;;;8.50;2.10;;;;;;;3.14;44.89;98708.44;4899288;29;20016;-80
2021/04/05 02:05:49;;;;;;;8.85;2.22;;;;;;;3.01;49.01;98711.91;4899310;29;20055;-82
2021/04/05 02:08:17;;;;;;;11.48;2.67;;;;;;;2.66;48.53;98668.72;4915623;29;20029;-82
2021/04/05 02:10:44;;;;;;;8.73;2.42;;;;;;;2.94;47.51;98721.69;4918795;29;20029;-82
2021/04/05 02:13:10;;;;;;;9.35;2.20;;;;;;;2.87;46.30;98767.84;4916962;29;20032;-82
2021/04/05 02:15:36;;;;;;;9.00;1.95;;;;;;;2.74;44.04;98631.34;4899015;29;20055;-82
2021/04/05 02:18:02;;;;;;;12.00;3.05;;;;;;;2.44;49.40;98676.00;4901279;29;20052;-82
2021/04/05 02:20:30;;;;;;;7.90;2.08;;;;;;;2.67;43.77;98738.56;4902679;29;20104;-82
2021/04/05 02:22:58;;;;;;;7.68;1.83;;;;;;;2.63;45.00;98708.94;4916641;29;20028;-82
2021/04/05 02:25:26;;;;;;;7.60;1.70;;;;;;;2.59;45.54;98736.91;4903658;29;20106;-82
2021/04/05 02:27:52;;;;;;;7.65;2.13;;;;;;;2.33;52.10;98685.34;4912422;29;20396;-82
2021/04/05 02:30:24;;;;;;;9.90;2.17;;;;;;;2.54;52.10;98753.44;4910130;29;20032;-82
2021/04/05 02:32:56;;;;;;;9.68;2.13;;;;;;;2.54;52.67;98760.56;4914109;29;20111;-82
2021/04/05 02:35:27;;;;;;;8.60;2.45;;;;;;;2.48;51.60;98750.75;4899409;29;20093;-82
2021/04/05 02:37:54;;;;;;;6.28;1.27;;;;;;;2.27;50.46;98744.53;4879375;29;20068;-81
2021/04/05 02:40:20;;;;;;;6.93;1.48;;;;;;;2.05;49.08;98719.09;4897693;29;20028;-82
2021/04/05 02:42:47;;;;;;;6.50;1.63;;;;;;;2.21;46.63;98747.94;4897822;29;20467;-82
2021/04/05 02:45:17;;;;;;;6.95;1.48;;;;;;;1.96;43.79;98714.97;4913569;29;20044;-82
2021/04/05 02:47:43;;;;;;;9.30;2.10;;;;;;;1.94;44.40;98696.59;4912634;29;20028;-81
2021/04/05 02:50:11;;;;;;;6.30;0.95;;;;;;;1.98;45.02;98697.00;4898235;29;20054;-81
2021/04/05 02:52:38;;;;;;;11.07;2.30;;;;;;;1.99;46.25;98711.94;4898045;29;20025;-81
2021/04/05 02:55:07;;;;;;;9.82;2.22;;;;;;;1.32;46.13;98631.94;4911538;29;20048;-81
2021/04/05 02:57:38;;;;;;;5.20;0.95;;;;;;;1.56;44.80;98672.28;4899456;29;20366;-80
2021/04/05 03:00:09;;;;;;;7.75;1.10;;;;;;;1.69;46.20;98722.75;4905255;29;20356;-81
2021/04/05 03:02:37;;;;;;;9.93;2.35;;;;;;;1.52;46.50;98684.25;4900187;29;20095;-82
2021/04/05 03:05:05;;;;;;;8.13;1.42;;;;;;;1.67;47.05;98686.84;4898583;29;20096;-82
2021/04/05 03:07:31;;;;;;;9.90;1.58;;;;;;;1.70;48.61;98713.78;4923070;29;20027;-82
2021/04/05 03:09:57;;;;;;;7.32;1.27;;;;;;;1.60;46.42;98731.84;4900302;29;20046;-82
2021/04/05 03:12:22;;;;;;;6.38;1.13;;;;;;;1.60;47.33;98695.56;4897853;29;20051;-82
2021/04/05 03:14:49;;;;;;;11.68;1.63;;;;;;;1.55;46.37;98695.31;4894742;29;20100;-81
2021/04/05 03:17:17;;;;;;;10.35;1.80;;;;;;;1.49;47.67;98712.00;4893922;29;20064;-81
2021/04/05 03:19:43;;;;;;;9.32;1.98;;;;;;;1.60;50.18;98710.66;4895837;29;20100;-82
2021/04/05 03:22:09;;;;;;;6.88;1.73;;;;;;;1.35;47.94;98694.34;4893553;29;20095;-81
2021/04/05 03:24:37;;;;;;;8.18;1.73;;;;;;;1.10;46.69;98651.56;4910190;29;20059;-82
2021/04/05 03:27:03;;;;;;;12.88;2.33;;;;;;;1.14;48.75;98616.53;4907610;29;20032;-82
2021/04/05 03:29:34;;;;;;;6.97;1.88;;;;;;;1.29;48.22;98698.59;4892139;29;20500;-81
2021/04/05 03:32:02;;;;;;;12.13;1.85;;;;;;;1.06;50.09;98661.72;4893715;29;20104;-81
2021/04/05 03:34:29;;;;;;;11.30;2.10;;;;;;;1.13;49.39;98699.66;4911607;29;20107;-81
2021/04/05 03:36:58;;;;;;;9.60;1.55;;;;;;;1.08;48.99;98688.00;4927114;29;20024;-81
2021/04/05 03:39:25;;;;;;;15.38;2.38;;;;;;;1.06;50.32;98672.31;4910827;29;20040;-81
2021/04/05 03:42:09;;;;;;;5.75;0.90;;;;;;;0.77;48.83;98636.19;4907940;29;20036;-81
2021/04/05 03:44:55;;;;;;;8.82;1.30;;;;;;;0.78;49.24;98643.13;4899751;29;20035;-81
2021/04/05 03:47:29;;;;;;;;;;;;;;;1.09;49.97;98671.09;4899466;29;20055;-81
2021/04/05 03:50:16;;;;;;;8.73;1.77;;;;;;;0.88;49.34;98648.91;4909856;29;19923;-80
2021/04/05 03:52:50;;;;;;;14.88;2.35;;;;;;;1.03;51.95;98571.25;4900251;29;20021;-80
2021/04/05 03:55:19;;;;;;;13.50;2.88;;;;;;;1.26;53.92;98593.00;4912559;29;20097;-81
2021/04/05 03:57:48;;;;;;;7.40;1.60;;;;;;;1.00;53.21;98628.03;4893275;29;20048;-81
2021/04/05 04:00:17;;;;;;;8.48;1.90;;;;;;;0.92;53.51;98628.97;4927980;29;20088;-81
2021/04/05 04:02:48;;;;;;;4.63;1.27;;;;;;;0.68;51.46;98606.38;4914671;29;20027;-82
2021/04/05 04:07:59;;;;;;;20.65;2.25;;;;;;;0.66;52.77;98616.34;4915988;29;20044;-81
2021/04/05 04:10:28;;;;;;;11.65;2.10;;;;;;;0.55;51.82;98611.53;4915502;29;20051;-82
2021/04/05 04:12:55;;;;;;;4.35;1.20;;;;;;;0.56;51.21;98607.88;4905511;29;20028;-81
2021/04/05 04:15:21;;;;;;;13.45;1.67;;;;;;;0.51;51.68;98609.47;4911681;29;20041;-81
2021/04/05 04:17:50;;;;;;;10.20;1.10;;;;;;;0.50;52.74;98606.00;4895861;29;20040;-81
2021/04/05 04:20:18;;;;;;;6.80;1.20;;;;;;;0.50;52.62;98597.22;4895560;29;20102;-81
2021/04/05 04:22:47;;;;;;;12.43;1.95;;;;;;;0.49;53.20;98592.94;4893965;29;20029;-81
2021/04/05 04:25:15;;;;;;;8.88;1.35;;;;;;;0.46;54.65;98578.25;4882803;29;20032;-81
2021/04/05 04:27:44;;;;;;;9.45;1.83;;;;;;;0.28;51.56;98565.47;4879352;29;20055;-81
2021/04/05 04:30:32;;;;;;;4.60;1.00;;;;;;;0.56;52.65;98599.13;4896177;29;20044;-81
2021/04/05 04:33:05;;;;;;;6.15;1.17;;;;;;;0.51;51.65;98583.00;4926737;29;20031;-81
2021/04/05 04:35:32;;;;;;;5.38;1.08;;;;;;;0.51;52.86;98585.66;4910180;29;20092;-80
2021/04/05 04:37:59;;;;;;;10.93;1.23;;;;;;;0.67;55.32;98595.97;4929327;29;20102;-81
2021/04/05 04:40:25;;;;;;;8.05;1.50;;;;;;;0.72;51.84;98575.03;4932414;29;20024;-81
2021/04/05 04:42:51;;;;;;;10.48;2.42;;;;;;;0.44;55.48;98537.97;4917684;29;20035;-81
2021/04/05 04:45:18;;;;;;;6.75;1.27;;;;;;;0.82;55.89;98577.38;4916258;29;20020;-79
2021/04/05 04:47:44;;;;;;;17.20;1.98;;;;;;;0.90;56.42;98574.59;4898452;29;20020;-81
2021/04/05 04:50:14;;;;;;;10.93;1.65;;;;;;;0.69;54.53;98568.28;4897415;29;20029;-80
2021/04/05 04:52:40;;;;;;;7.78;1.77;;;;;;;0.79;54.48;98569.81;4895415;29;20037;-81
2021/04/05 04:55:07;;;;;;;13.80;2.70;;;;;;;0.74;53.21;98561.63;4895626;29;20035;-82
2021/04/05 04:57:32;;;;;;;5.07;0.93;;;;;;;0.33;51.71;98489.03;4912264;29;20493;-81
2021/04/05 04:59:58;;;;;;;7.90;1.55;;;;;;;0.51;51.28;98562.66;4911515;29;20035;-82
2021/04/05 05:02:24;;;;;;;8.75;1.63;;;;;;;0.62;51.60;98548.09;4895676;29;20038;-81
2021/04/05 05:04:53;;;;;;;8.07;1.75;;;;;;;0.67;53.06;98546.50;4915372;29;20024;-82
2021/04/05 05:07:20;;;;;;;8.98;1.58;;;;;;;0.50;51.23;98539.84;4909813;29;20025;-82
2021/04/05 05:09:46;;;;;;;4.25;0.85;;;;;;;0.34;50.91;98518.94;4895904;29;20033;-81
2021/04/05 05:12:13;;;;;;;5.90;1.08;;;;;;;0.56;50.37;98564.72;4895394;29;20040;-81
2021/04/05 05:14:38;;;;;;;6.63;1.30;;;;;;;0.55;51.13;98566.53;4911259;29;20029;-81
2021/04/05 05:17:06;;;;;;;5.03;0.70;;;;;;;0.57;51.54;98561.91;4914335;29;20103;-81
2021/04/05 05:19:35;;;;;;;9.05;1.00;;;;;;;0.24;52.19;98492.81;4895607;29;20039;-81
2021/04/05 05:22:04;;;;;;;7.07;1.20;;;;;;;0.65;51.20;98553.81;4901427;29;20032;-80
2021/04/05 05:24:31;;;;;;;7.30;1.60;;;;;;;0.66;53.82;98554.63;4898475;29;20067;-82
2021/04/05 05:26:59;;;;;;;9.50;1.42;;;;;;;0.27;52.72;98481.03;4898039;29;20104;-82
2021/04/05 05:29:27;;;;;;;7.38;1.40;;;;;;;0.36;48.90;98499.22;4890705;29;20071;-81
2021/04/05 05:31:52;;;;;;;6.07;1.08;;;;;;;0.29;52.19;98521.31;4915285;29;20041;-81
2021/04/05 05:34:20;;;;;;;6.95;0.88;;;;;;;0.25;52.29;98483.84;4894237;29;20123;-82
2021/04/05 05:36:47;;;;;;;8.57;1.23;;;;;;;0.38;52.18;98536.88;4914301;29;20028;-82
2021/04/05 05:39:14;;;;;;;7.25;1.40;;;;;;;0.34;51.06;98506.53;4885269;29;20044;-81
2021/04/05 05:42:07;;;;;;;7.55;1.30;;;;;;;0.49;50.32;98532.91;4876048;29;20041;-81
2021/04/05 05:45:05;;;;;;;3.60;0.90;;;;;;;0.63;50.34;98524.09;4893724;29;20029;-83
2021/04/05 05:47:55;;;;;;;6.60;1.42;;;;;;;0.63;50.14;98517.94;4894139;29;20036;-81
2021/04/05 05:50:30;;;;;;;4.70;1.35;;;;;;;0.68;51.75;98513.72;4914254;29;20009;-82
2021/04/05 05:53:03;;;;;;;8.95;1.48;;;;;;;0.65;52.19;98510.66;4895892;29;20028;-83
2021/04/05 05:56:00;;;;;;;5.75;1.13;;;;;;;0.68;54.04;98521.66;4896386;29;20017;-81
2021/04/05 05:58:53;;;;;;;6.43;1.20;;;;;;;0.74;51.52;98516.63;4901189;29;20116;-81
2021/04/05 06:01:36;;;;;;;8.88;1.05;;;;;;;0.52;50.80;98489.38;4913659;29;20043;-82
2021/04/05 06:04:23;;;;;;;5.75;1.25;;;;;;;0.55;49.94;98529.50;4915649;29;20135;-81
2021/04/05 06:07:12;;;;;;;6.70;1.00;;;;;;;0.32;51.37;98490.03;4896428;29;20072;-82
2021/04/05 06:10:01;;;;;;;5.10;1.30;;;;;;;0.60;52.13;98539.53;4929938;29;20092;-81
2021/04/05 06:12:38;;;;;;;4.20;1.10;;;;;;;0.40;52.38;98483.81;4937150;29;20164;-81
2021/04/05 06:15:21;;;;;;;3.83;0.98;;;;;;;0.50;51.11;98545.16;4937664;29;20359;-81
2021/04/05 06:18:25;;;;;;;6.85;1.17;;;;;;;0.41;49.09;98514.53;4943507;29;20063;-83
2021/04/05 06:21:00;;;;;;;5.57;0.50;;;;;;;0.78;50.11;98531.13;4903181;29;20040;-84
2021/04/05 06:23:41;;;;;;;6.00;0.95;;;;;;;0.77;50.86;98511.78;4914557;29;20043;-82
2021/04/05 06:26:44;;;;;;;6.57;1.08;;;;;;;0.66;49.22;98539.59;4903137;29;20032;-82
2021/04/05 06:29:26;;;;;;;3.28;0.63;;;;;;;0.55;48.38;98553.31;5170072;23;20048;-81
2021/04/05 06:32:15;;;;;;;4.22;1.20;;;;;;;-0.74;52.29;98304.03;4900479;29;20032;-81
2021/04/05 06:34:57;;;;;;;6.47;0.70;;;;;;;0.59;51.87;98479.66;4926639;29;20057;-81
2021/04/05 06:37:41;;;;;;;5.25;1.27;;;;;;;0.85;51.15;98538.09;4907891;29;20044;-81
2021/04/05 06:40:13;;;;;;;6.25;1.10;;;;;;;0.61;49.57;98520.81;4927721;29;20426;-81
2021/04/05 06:42:57;;;;;;;6.15;1.30;;;;;;;0.67;49.86;98521.88;4885452;29;20458;-82
2021/04/05 06:45:52;;;;;;;5.88;1.20;;;;;;;0.57;48.35;98493.09;4911902;29;20016;-81
2021/04/05 06:48:55;;;;;;;3.72;0.70;;;;;;;0.73;49.77;98502.59;4922354;29;20013;-83
2021/04/05 06:51:54;;;;;;;6.03;1.02;;;;;;;0.63;52.21;98517.94;4917210;29;20032;-80
2021/04/05 06:54:51;;;;;;;8.27;1.00;;;;;;;0.50;51.26;98544.31;4918679;29;20032;-80
2021/04/05 06:57:57;;;;;;;6.45;1.05;;;;;;;0.02;50.63;98462.09;4887583;29;20024;-81
2021/04/05 07:00:35;;;;;;;3.70;0.70;;;;;;;0.22;50.01;98476.31;4888618;29;20067;-80
2021/04/05 07:03:22;;;;;;;2.97;0.63;;;;;;;0.35;48.72;98515.28;4897385;29;20032;-81
2021/04/05 07:06:13;;;;;;;4.43;0.85;;;;;;;0.41;51.88;98523.28;4905862;29;20088;-80
2021/04/05 07:08:41;;;;;;;4.47;1.27;;;;;;;0.51;51.32;98501.78;4896541;29;20020;-81
2021/04/05 07:11:25;;;;;;;5.15;1.10;;;;;;;0.56;51.58;98519.72;4922899;29;20024;-81
2021/04/05 07:14:18;;;;;;;4.18;1.15;;;;;;;0.47;52.77;98476.72;4913845;29;20028;-81
2021/04/05 07:17:13;;;;;;;4.57;0.82;;;;;;;0.53;51.63;98528.06;4921942;29;20129;-81
2021/04/05 07:19:47;;;;;;;5.40;1.00;;;;;;;0.67;50.10;98506.00;4894187;29;20121;-81
2021/04/05 07:22:22;;;;;;;3.65;1.10;;;;;;;0.87;51.43;98519.38;4916731;29;20147;-81
2021/04/05 07:25:01;;;;;;;5.65;0.80;;;;;;;0.70;50.37;98500.31;4894883;29;20158;-81
2021/04/05 07:28:04;;;;;;;5.95;0.93;;;;;;;0.65;48.82;98522.06;4894676;29;20032;-80
2021/04/05 07:30:41;;;;;;;3.80;0.75;;;;;;;0.63;50.81;98497.63;4890180;29;20049;-81
2021/04/05 07:33:31;;;;;;;8.70;1.50;;;;;;;0.81;51.04;98498.97;4905372;29;20028;-81
2021/04/05 07:36:21;;;;;;;5.28;0.85;;;;;;;0.81;51.25;98478.59;4897744;29;20032;-81
2021/04/05 07:38:53;;;;;;;4.10;0.63;;;;;;;0.88;51.75;98511.22;4891533;29;20036;-81
2021/04/05 07:41:30;;;;;;;4.03;0.60;;;;;;;0.81;49.57;98494.50;4921937;29;20032;-83
2021/04/05 07:44:12;;;;;;;2.75;0.60;;;;;;;0.73;48.67;98512.34;4917489;29;20029;-81
2021/04/05 07:46:47;;;;;;;5.15;0.50;;;;;;;0.82;49.23;98519.94;4919642;29;20036;-82
2021/04/05 07:49:28;;;;;;;2.78;0.77;;;;;;;0.99;47.96;98490.53;4902982;29;20021;-82
2021/04/05 07:52:06;;;;;;;2.03;0.45;;;;;;;0.97;49.10;98500.50;4915635;29;20036;-81
2021/04/05 07:54:36;;;;;;;4.97;0.90;;;;;;;0.87;51.26;98516.72;4918182;29;20031;-81
2021/04/05 07:57:27;;;;;;;5.25;0.75;;;;;;;0.54;51.61;98511.19;4901869;29;20043;-81
2021/04/05 08:02:59;;;;;;;3.03;0.60;;;;;;;0.43;50.69;98537.16;4972484;23;20041;-81
2021/04/05 08:05:43;;;;;;;2.80;0.73;;;;;;;0.47;49.90;98529.66;4894297;29;20033;-80
2021/04/05 08:08:16;;;;;;;5.65;0.73;;;;;;;0.13;51.18;98451.00;4891351;29;20119;-81
2021/04/05 08:11:03;;;;;;;3.70;0.93;;;;;;;0.48;50.72;98531.28;4892871;29;20028;-81
2021/04/05 08:14:10;;;;;;;2.90;0.57;;;;;;;0.56;53.24;98549.66;4913548;29;20124;-80
2021/04/05 08:16:57;;;;;;;2.30;0.40;;;;;;;0.40;51.61;98550.75;4902173;29;20029;-83
2021/04/05 08:19:31;;;;;;;3.65;0.55;;;;;;;0.17;51.89;98536.91;4905965;29;20033;-82
2021/04/05 08:22:21;;;;;;;2.42;0.68;;;;;;;0.17;52.48;98539.53;4923398;29;20100;-82
2021/04/05 08:24:58;;;;;;;2.30;0.60;;;;;;;-0.13;50.97;98452.41;4906276;29;20032;-83
2021/04/05 08:27:46;;;;;;;3.92;0.50;;;;;;;0.77;49.08;98522.38;4917730;29;20088;-82
2021/04/05 08:30:24;;;;;;;3.72;0.98;;;;;;;0.86;49.70;98504.47;4911229;29;20108;-82
2021/04/05 08:33:10;;;;;;;4.05;0.75;;;;;;;0.86;48.52;98542.41;5021136;23;20070;-81
2021/04/05 08:35:48;;;;;;;5.68;0.88;;;;;;;1.03;50.17;98510.31;4893072;29;20028;-81
2021/04/05 08:38:23;;;;;;;8.57;1.50;;;;;;;0.89;49.85;98504.09;4891875;29;20097;-82
2021/04/05 08:41:11;;;;;;;2.97;0.50;;;;;;;0.85;49.19;98527.50;4954884;23;20859;-81
2021/04/05 08:43:47;;;;;;;4.78;1.02;;;;;;;0.80;49.13;98535.22;4920655;29;20043;-82
2021/04/05 08:46:19;;;;;;;3.72;0.63;;;;;;;0.20;49.69;98426.25;4934127;29;20060;-81
2021/04/05 08:48:52;;;;;;;6.20;0.90;;;;;;;0.45;48.44;98484.84;4934554;29;20044;-83
2021/04/05 08:51:26;;;;;;;3.53;0.82;;;;;;;-0.30;48.79;98371.72;4923999;29;20032;-81
2021/04/05 08:53:56;;;;;;;4.20;0.63;;;;;;;1.02;49.79;98559.81;4919041;29;20036;-81
2021/04/05 08:56:30;;;;;;;2.88;0.65;;;;;;;-0.58;46.37;98311.72;4939809;29;20031;-83
2021/04/05 08:59:21;;;;;;;3.53;0.50;;;;;;;-0.62;48.13;98307.00;4924881;29;20023;-81
2021/04/05 09:01:58;;;;;;;4.35;0.90;;;;;;;-0.43;48.01;98305.53;4923416;29;20060;-83
2021/04/05 09:04:27;;;;;;;3.63;0.80;;;;;;;0.23;49.00;98380.06;4922792;29;20031;-82
2021/04/05 09:07:34;;;;;;;6.40;0.70;;;;;;;0.23;47.70;98427.69;4921828;29;20020;-83
2021/04/05 09:12:37;;;;;;;2.72;0.40;;;;;;;-0.20;47.24;98337.84;5389236;23;20069;-83
2021/04/05 09:15:43;;;;;;;2.05;0.40;;;;;;;0.07;46.49;98385.69;4921968;29;20212;-84
2021/04/05 09:18:46;;;;;;;3.50;0.40;;;;;;;1.53;48.16;98572.78;5360519;23;20037;-83
2021/04/05 09:21:40;;;;;;;4.53;0.68;;;;;;;0.69;48.81;98473.00;4921919;28;20055;-83
2021/04/05 09:24:33;;;;;;;3.55;0.65;;;;;;;0.17;50.33;98441.69;4901610;29;20017;-83
2021/04/05 09:27:20;;;;;;;3.17;0.73;;;;;;;1.24;51.44;98576.47;4903373;29;20005;-83
2021/04/05 09:33:04;;;;;;;3.30;0.52;;;;;;;1.14;48.51;98570.69;5317180;23;20064;-82
2021/04/05 09:35:56;;;;;;;4.38;0.47;;;;;;;1.22;49.00;98569.72;4852318;29;20017;-82
2021/04/05 09:38:54;;;;;;;4.00;0.50;;;;;;;0.89;50.68;98494.34;4979633;23;20048;-82
2021/04/05 09:44:10;;;;;;;2.05;0.40;;;;;;;1.39;48.04;98581.63;5004339;23;20055;-83
2021/04/05 09:46:58;;;;;;;3.70;0.80;;;;;;;1.44;49.92;98594.31;4899269;29;20040;-82
2021/04/05 09:49:45;;;;;;;1.80;0.40;;;;;;;1.40;47.33;98607.97;4897182;29;20039;-82
2021/04/05 09:52:28;;;;;;;1.98;0.40;;;;;;;1.37;48.14;98613.66;4902727;29;20084;-82
2021/04/05 09:54:59;;;;;;;4.13;0.60;;;;;;;1.08;51.13;98597.94;4909142;29;20024;-82
2021/04/05 09:57:32;;;;;;;1.58;0.40;;;;;;;1.07;50.40;98588.38;4898790;29;20072;-82
2021/04/05 10:00:00;;;;;;;4.97;1.40;;;;;;;1.13;50.28;98622.84;4899988;29;20028;-81
2021/04/05 10:02:34;;;;;;;3.28;0.70;;;;;;;0.88;50.25;98558.06;4911149;29;20076;-81
2021/04/05 10:05:01;;;;;;;2.85;0.65;;;;;;;0.97;50.49;98579.94;4905198;29;20087;-82
2021/04/05 10:07:28;;;;;;;3.20;0.40;;;;;;;1.32;49.01;98610.75;4892694;29;20029;-81
2021/04/05 10:09:55;;;;;;;4.53;0.50;;;;;;;1.39;49.51;98614.28;4911593;29;20020;-82
2021/04/05 10:12:24;;;;;;;1.08;0.30;;;;;;;1.49;46.66;98613.94;4885057;29;20033;-82
2021/04/05 10:14:51;;;;;;;3.35;0.50;;;;;;;1.28;45.88;98622.75;4885649;29;20065;-81
2021/04/05 10:17:23;;;;;;;1.98;0.30;;;;;;;1.36;48.57;98605.91;4879850;29;20180;-81
2021/04/05 10:22:24;;;;;;;1.77;0.35;;;;;;;1.61;48.51;98591.16;4912480;23;20068;-82
2021/04/05 10:24:56;;;;;;;1.83;0.30;;;;;;;0.90;47.50;98521.66;4911334;29;20384;-82
2021/04/05 10:27:26;;;;;;;2.85;0.40;;;;;;;0.82;47.14;98519.13;4898539;29;20028;-82
2021/04/05 10:29:54;;;;;;;2.15;0.35;;;;;;;0.86;47.44;98517.72;4916838;29;20044;-81
2021/04/05 10:32:22;;;;;;;3.50;0.40;;;;;;;0.20;47.37;98397.16;4921566;29;20225;-81
2021/04/05 10:34:54;;;;;;;1.75;0.22;;;;;;;0.27;46.10;98380.53;4898522;29;20040;-83
2021/04/05 10:37:24;;;;;;;1.45;0.30;;;;;;;0.31;47.55;98389.72;4905540;29;20066;-81
2021/04/05 10:39:54;;;;;;;1.40;0.40;;;;;;;0.14;46.82;98365.38;4903367;29;20052;-80
2021/04/05 10:57:57;;;;;;;4.63;0.70;;;;;;;1.91;45.48;98659.03;5815968;23;20066;-83
2021/04/05 11:00:35;;;;;;;4.22;0.85;;;;;;;1.22;46.51;98549.34;5016843;23;20023;-82
2021/04/05 11:08:27;;;;;;;4.75;0.75;;;;;;;1.16;47.89;98513.88;5842822;23;20076;-82
2021/04/05 11:16:09;;;;;;;1.55;0.25;;;;;;;1.40;46.80;98562.91;5581549;23;20075;-84
2021/04/05 11:31:23;;;;;;;4.28;0.82;;;;;;;0.41;46.06;98424.59;4892163;29;20041;-84
2021/04/05 11:33:57;;;;;;;4.43;0.80;;;;;;;0.97;48.44;98501.31;5385208;23;20070;-84
2021/04/05 11:36:32;;;;;;;2.47;0.50;;;;;;;0.88;48.09;98489.25;4906532;29;20033;-83
2021/04/05 11:39:00;;;;;;;2.22;0.52;;;;;;;0.80;47.42;98478.81;4916023;29;20021;-83
2021/04/05 11:41:28;;;;;;;2.50;0.47;;;;;;;0.68;48.68;98474.03;4908524;29;20108;-82
2021/04/05 11:43:57;;;;;;;2.08;0.40;;;;;;;0.66;47.30;98425.78;4905786;29;20032;-83
2021/04/05 11:46:29;;;;;;;2.78;0.60;;;;;;;0.58;47.81;98449.75;4936331;29;20112;-82
2021/04/05 11:49:07;;;;;;;3.65;0.57;;;;;;;1.61;49.21;98596.44;4931380;29;20100;-80
2021/04/05 11:51:54;;;;;;;5.18;0.80;;;;;;;0.75;50.72;98441.50;4931970;29;20016;-82
2021/04/05 11:54:38;;;;;;;3.75;0.65;;;;;;;1.31;50.16;98532.28;4940419;29;20032;-84
2021/04/05 11:57:10;;;;;;;2.00;0.43;;;;;;;1.45;49.79;98561.50;4941929;29;20044;-84
2021/04/05 11:59:44;;;;;;;2.42;0.57;;;;;;;1.63;49.13;98557.31;4939948;29;20008;-84
2021/04/05 12:04:50;;;;;;;2.72;0.40;;;;;;;0.82;47.98;98455.59;4902038;29;19912;-82
2021/04/05 12:07:22;;;;;;;4.70;0.70;;;;;;;1.58;49.82;98561.56;4895694;29;20025;-83
2021/04/05 12:10:02;;;;;;;3.40;0.40;;;;;;;2.50;49.92;98711.56;4904758;29;20024;-83
2021/04/05 12:12:36;;;;;;;2.17;0.30;;;;;;;0.89;51.73;98461.75;4902744;29;20036;-83
2021/04/05 12:15:04;;;;;;;;;;;;;;;2.56;50.57;98718.72;4904251;29;20023;-82
2021/04/05 12:17:31;;;;;;;3.10;0.30;;;;;;;1.27;50.13;98506.38;4886324;29;19939;-82
2021/04/05 12:19:59;;;;;;;0.75;0.15;;;;;;;1.50;52.84;98519.34;4878998;29;20104;-82
2021/04/05 12:22:29;;;;;;;4.53;0.60;;;;;;;1.56;54.29;98537.13;4900756;29;20044;-82
2021/04/05 12:24:57;;;;;;;2.67;0.47;;;;;;;1.35;53.19;98472.56;4903219;29;20021;-83
2021/04/05 12:27:34;;;;;;;2.13;0.52;;;;;;;1.38;53.60;98440.38;4884604;29;20066;-84
2021/04/05 12:30:03;;;;;;;1.77;0.40;;;;;;;3.22;54.03;98726.88;4885542;29;20101;-83
2021/04/05 12:32:31;;;;;;;2.03;0.35;;;;;;;1.72;53.81;98477.63;4910994;29;20016;-83
2021/04/05 12:35:00;;;;;;;2.97;0.60;;;;;;;2.51;55.29;98594.53;4887376;29;20033;-82
2021/04/05 12:37:29;;;;;;;4.68;0.50;;;;;;;2.95;55.45;98698.63;4906006;29;20024;-84
2021/04/05 12:40:01;;;;;;;2.58;0.50;;;;;;;3.27;54.76;98732.38;4910399;29;20021;-84
2021/04/05 12:42:34;;;;;;;2.67;0.60;;;;;;;1.75;56.58;98480.69;4896814;29;20020;-84
2021/04/05 12:45:02;;;;;;;4.80;0.90;;;;;;;3.34;55.36;98719.09;4890639;29;20027;-84
2021/04/05 12:47:31;;;;;;;3.22;0.50;;;;;;;1.82;54.09;98494.81;5097044;23;20054;-83
2021/04/05 12:50:01;;;;;;;7.53;0.77;;;;;;;2.43;54.56;98610.66;4929245;29;20036;-83
2021/04/05 12:52:33;;;;;;;7.28;0.82;;;;;;;2.63;55.62;98578.84;4928939;29;20114;-82
2021/04/05 12:55:03;;;;;;;2.10;0.70;;;;;;;2.75;55.86;98654.25;4921778;29;20032;-84
2021/04/05 12:57:32;;;;;;;5.05;0.73;;;;;;;2.39;56.41;98590.03;4922620;29;20000;-84
2021/04/05 12:59:59;;;;;;;5.30;0.63;;;;;;;3.43;56.64;98735.66;4931692;29;20025;-83
2021/04/05 13:02:32;;;;;;;1.98;0.47;;;;;;;2.23;56.88;98573.47;4910380;29;20012;-83
2021/04/05 13:05:01;;;;;;;4.78;0.68;;;;;;;3.43;56.90;98773.69;4933839;29;20032;-81
2021/04/05 13:07:40;;;;;;;3.35;0.52;;;;;;;2.00;57.67;98546.47;4917981;29;20030;-83
2021/04/05 13:10:14;;;;;;;4.65;0.50;;;;;;;2.03;57.60;98535.44;4922657;29;20036;-84